sensor_id;sensor_type;location;lat;lon;timestamp;P1;durP1;ratioP1;P2;durP2;ratioP2
69789;SDS011;57064;52.046;4.800;2024-02-28T00:02:00;14.60;;;8.45;;
69789;SDS011;57064;52.046;4.800;2024-02-28T00:04:26;16.85;;;8.07;;
69789;SDS011;57064;52.046;4.800;2024-02-28T00:06:53;15.73;;;7.63;;
69789;SDS011;57064;52.046;4.800;2024-02-28T00:09:19;16.55;;;9.27;;
69789;SDS011;57064;52.046;4.800;2024-02-28T00:11:45;16.98;;;9.00;;
69789;SDS011;57064;52.046;4.800;2024-02-28T00:14:12;15.15;;;8.75;;
69789;SDS011;57064;52.046;4.800;2024-02-28T00:16:42;13.98;;;7.97;;
69789;SDS011;57064;52.046;4.800;2024-02-28T00:19:12;13.80;;;8.65;;
69789;SDS011;57064;52.046;4.800;2024-02-28T00:21:39;15.25;;;8.00;;
69789;SDS011;57064;52.046;4.800;2024-02-28T00:24:06;19.63;;;9.55;;
69789;SDS011;57064;52.046;4.800;2024-02-28T00:26:34;15.38;;;7.93;;
69789;SDS011;57064;52.046;4.800;2024-02-28T00:29:01;13.43;;;8.05;;
69789;SDS011;57064;52.046;4.800;2024-02-28T00:31:27;15.73;;;8.35;;
69789;SDS011;57064;52.046;4.800;2024-02-28T00:33:53;20.73;;;8.27;;
69789;SDS011;57064;52.046;4.800;2024-02-28T00:36:19;13.05;;;8.02;;
69789;SDS011;57064;52.046;4.800;2024-02-28T00:38:46;14.55;;;8.05;;
69789;SDS011;57064;52.046;4.800;2024-02-28T00:41:12;13.88;;;8.82;;
69789;SDS011;57064;52.046;4.800;2024-02-28T00:43:38;15.88;;;8.70;;
69789;SDS011;57064;52.046;4.800;2024-02-28T00:46:04;16.52;;;8.75;;
69789;SDS011;57064;52.046;4.800;2024-02-28T00:48:33;18.40;;;9.48;;
69789;SDS011;57064;52.046;4.800;2024-02-28T00:50:59;15.98;;;8.90;;
69789;SDS011;57064;52.046;4.800;2024-02-28T00:53:27;16.08;;;9.07;;
69789;SDS011;57064;52.046;4.800;2024-02-28T00:55:53;14.07;;;9.05;;
69789;SDS011;57064;52.046;4.800;2024-02-28T00:58:20;14.43;;;8.25;;
69789;SDS011;57064;52.046;4.800;2024-02-28T01:00:47;14.07;;;8.30;;
69789;SDS011;57064;52.046;4.800;2024-02-28T01:03:13;15.52;;;8.40;;
69789;SDS011;57064;52.046;4.800;2024-02-28T01:05:40;17.27;;;8.10;;
69789;SDS011;57064;52.046;4.800;2024-02-28T01:08:06;13.98;;;7.95;;
69789;SDS011;57064;52.046;4.800;2024-02-28T01:10:33;16.17;;;7.55;;
69789;SDS011;57064;52.046;4.800;2024-02-28T01:12:59;14.93;;;7.80;;
69789;SDS011;57064;52.046;4.800;2024-02-28T01:15:28;14.85;;;8.00;;
69789;SDS011;57064;52.046;4.800;2024-02-28T01:17:54;14.65;;;7.72;;
69789;SDS011;57064;52.046;4.800;2024-02-28T01:20:21;13.80;;;7.78;;
69789;SDS011;57064;52.046;4.800;2024-02-28T01:22:47;16.15;;;8.10;;
69789;SDS011;57064;52.046;4.800;2024-02-28T01:25:13;16.23;;;8.05;;
69789;SDS011;57064;52.046;4.800;2024-02-28T01:27:39;17.80;;;7.75;;
69789;SDS011;57064;52.046;4.800;2024-02-28T01:30:05;14.65;;;7.78;;
69789;SDS011;57064;52.046;4.800;2024-02-28T01:32:32;15.45;;;7.40;;
69789;SDS011;57064;52.046;4.800;2024-02-28T01:34:58;14.35;;;7.88;;
69789;SDS011;57064;52.046;4.800;2024-02-28T01:37:24;18.10;;;8.10;;
69789;SDS011;57064;52.046;4.800;2024-02-28T01:39:50;14.95;;;8.57;;
69789;SDS011;57064;52.046;4.800;2024-02-28T01:42:17;13.02;;;7.28;;
69789;SDS011;57064;52.046;4.800;2024-02-28T01:44:45;16.23;;;8.70;;
69789;SDS011;57064;52.046;4.800;2024-02-28T01:47:13;14.02;;;7.85;;
69789;SDS011;57064;52.046;4.800;2024-02-28T01:49:40;12.88;;;7.75;;
69789;SDS011;57064;52.046;4.800;2024-02-28T01:52:08;15.10;;;7.82;;
69789;SDS011;57064;52.046;4.800;2024-02-28T01:54:35;13.65;;;7.90;;
69789;SDS011;57064;52.046;4.800;2024-02-28T01:57:01;19.48;;;8.07;;
69789;SDS011;57064;52.046;4.800;2024-02-28T01:59:28;14.73;;;7.88;;
69789;SDS011;57064;52.046;4.800;2024-02-28T02:01:58;15.63;;;8.10;;
69789;SDS011;57064;52.046;4.800;2024-02-28T02:04:25;16.17;;;8.52;;
69789;SDS011;57064;52.046;4.800;2024-02-28T02:06:51;17.73;;;8.27;;
69789;SDS011;57064;52.046;4.800;2024-02-28T02:09:19;12.88;;;7.55;;
69789;SDS011;57064;52.046;4.800;2024-02-28T02:11:45;14.63;;;8.27;;
69789;SDS011;57064;52.046;4.800;2024-02-28T02:14:11;17.88;;;8.63;;
69789;SDS011;57064;52.046;4.800;2024-02-28T02:16:39;13.90;;;7.55;;
69789;SDS011;57064;52.046;4.800;2024-02-28T02:19:05;18.17;;;8.50;;
69789;SDS011;57064;52.046;4.800;2024-02-28T02:21:41;19.73;;;8.23;;
69789;SDS011;57064;52.046;4.800;2024-02-28T02:24:14;17.50;;;8.32;;
69789;SDS011;57064;52.046;4.800;2024-02-28T02:26:40;17.75;;;8.75;;
69789;SDS011;57064;52.046;4.800;2024-02-28T02:29:09;15.75;;;8.88;;
69789;SDS011;57064;52.046;4.800;2024-02-28T02:31:35;18.95;;;8.95;;
69789;SDS011;57064;52.046;4.800;2024-02-28T02:34:01;18.60;;;9.13;;
69789;SDS011;57064;52.046;4.800;2024-02-28T02:36:28;20.17;;;9.52;;
69789;SDS011;57064;52.046;4.800;2024-02-28T02:38:54;19.05;;;9.55;;
69789;SDS011;57064;52.046;4.800;2024-02-28T02:41:20;24.63;;;10.73;;
69789;SDS011;57064;52.046;4.800;2024-02-28T02:43:46;22.10;;;10.32;;
69789;SDS011;57064;52.046;4.800;2024-02-28T02:46:12;17.70;;;10.13;;
69789;SDS011;57064;52.046;4.800;2024-02-28T02:48:38;18.77;;;10.15;;
69789;SDS011;57064;52.046;4.800;2024-02-28T02:51:04;20.50;;;10.35;;
69789;SDS011;57064;52.046;4.800;2024-02-28T02:53:31;17.30;;;9.38;;
69789;SDS011;57064;52.046;4.800;2024-02-28T02:55:57;20.77;;;10.20;;
69789;SDS011;57064;52.046;4.800;2024-02-28T02:58:23;21.13;;;10.52;;
69789;SDS011;57064;52.046;4.800;2024-02-28T03:00:49;22.58;;;9.65;;
69789;SDS011;57064;52.046;4.800;2024-02-28T03:03:16;19.75;;;10.50;;
69789;SDS011;57064;52.046;4.800;2024-02-28T03:05:42;19.88;;;10.18;;
69789;SDS011;57064;52.046;4.800;2024-02-28T03:08:08;22.88;;;11.50;;
69789;SDS011;57064;52.046;4.800;2024-02-28T03:10:34;25.38;;;10.68;;
69789;SDS011;57064;52.046;4.800;2024-02-28T03:13:00;22.23;;;10.82;;
69789;SDS011;57064;52.046;4.800;2024-02-28T03:15:26;21.27;;;10.93;;
69789;SDS011;57064;52.046;4.800;2024-02-28T03:17:55;23.85;;;10.68;;
69789;SDS011;57064;52.046;4.800;2024-02-28T03:20:21;22.75;;;11.60;;
69789;SDS011;57064;52.046;4.800;2024-02-28T03:22:47;22.40;;;10.85;;
69789;SDS011;57064;52.046;4.800;2024-02-28T03:25:13;24.05;;;11.82;;
69789;SDS011;57064;52.046;4.800;2024-02-28T03:27:39;22.55;;;10.73;;
69789;SDS011;57064;52.046;4.800;2024-02-28T03:30:06;23.73;;;11.10;;
69789;SDS011;57064;52.046;4.800;2024-02-28T03:32:32;25.25;;;11.25;;
69789;SDS011;57064;52.046;4.800;2024-02-28T03:34:58;24.70;;;11.32;;
69789;SDS011;57064;52.046;4.800;2024-02-28T03:37:25;21.23;;;10.55;;
69789;SDS011;57064;52.046;4.800;2024-02-28T03:39:51;25.92;;;10.35;;
69789;SDS011;57064;52.046;4.800;2024-02-28T03:42:17;26.75;;;11.13;;
69789;SDS011;57064;52.046;4.800;2024-02-28T03:44:43;25.77;;;12.38;;
69789;SDS011;57064;52.046;4.800;2024-02-28T03:47:09;20.48;;;11.05;;
69789;SDS011;57064;52.046;4.800;2024-02-28T03:49:35;27.23;;;11.15;;
69789;SDS011;57064;52.046;4.800;2024-02-28T03:52:01;25.50;;;11.02;;
69789;SDS011;57064;52.046;4.800;2024-02-28T03:54:30;29.30;;;13.23;;
69789;SDS011;57064;52.046;4.800;2024-02-28T03:56:58;28.60;;;11.20;;
69789;SDS011;57064;52.046;4.800;2024-02-28T03:59:28;27.58;;;10.70;;
69789;SDS011;57064;52.046;4.800;2024-02-28T04:01:54;26.40;;;12.82;;
69789;SDS011;57064;52.046;4.800;2024-02-28T04:04:20;26.42;;;11.45;;
69789;SDS011;57064;52.046;4.800;2024-02-28T04:06:46;24.98;;;11.10;;
69789;SDS011;57064;52.046;4.800;2024-02-28T04:09:12;28.02;;;11.40;;
69789;SDS011;57064;52.046;4.800;2024-02-28T04:11:39;31.00;;;11.95;;
69789;SDS011;57064;52.046;4.800;2024-02-28T04:14:05;26.35;;;11.98;;
69789;SDS011;57064;52.046;4.800;2024-02-28T04:16:31;31.83;;;13.27;;
69789;SDS011;57064;52.046;4.800;2024-02-28T04:18:57;30.13;;;12.85;;
69789;SDS011;57064;52.046;4.800;2024-02-28T04:21:23;30.02;;;11.82;;
69789;SDS011;57064;52.046;4.800;2024-02-28T04:23:51;23.38;;;11.63;;
69789;SDS011;57064;52.046;4.800;2024-02-28T04:26:17;24.60;;;11.68;;
69789;SDS011;57064;52.046;4.800;2024-02-28T04:28:43;29.50;;;12.30;;
69789;SDS011;57064;52.046;4.800;2024-02-28T04:31:09;28.15;;;12.93;;
69789;SDS011;57064;52.046;4.800;2024-02-28T04:33:35;29.45;;;12.27;;
69789;SDS011;57064;52.046;4.800;2024-02-28T04:36:02;25.85;;;12.90;;
69789;SDS011;57064;52.046;4.800;2024-02-28T04:38:28;28.02;;;10.95;;
69789;SDS011;57064;52.046;4.800;2024-02-28T04:40:55;27.35;;;12.68;;
69789;SDS011;57064;52.046;4.800;2024-02-28T04:43:21;28.08;;;13.25;;
69789;SDS011;57064;52.046;4.800;2024-02-28T04:45:47;27.65;;;11.63;;
69789;SDS011;57064;52.046;4.800;2024-02-28T04:48:13;23.25;;;10.55;;
69789;SDS011;57064;52.046;4.800;2024-02-28T04:50:39;27.45;;;13.02;;
69789;SDS011;57064;52.046;4.800;2024-02-28T04:53:05;25.63;;;12.13;;
69789;SDS011;57064;52.046;4.800;2024-02-28T04:55:31;21.33;;;10.88;;
69789;SDS011;57064;52.046;4.800;2024-02-28T04:57:57;24.27;;;13.05;;
69789;SDS011;57064;52.046;4.800;2024-02-28T05:00:23;27.63;;;11.63;;
69789;SDS011;57064;52.046;4.800;2024-02-28T05:02:50;25.13;;;12.40;;
69789;SDS011;57064;52.046;4.800;2024-02-28T05:05:19;27.45;;;12.38;;
69789;SDS011;57064;52.046;4.800;2024-02-28T05:07:45;26.70;;;12.05;;
69789;SDS011;57064;52.046;4.800;2024-02-28T05:10:11;32.88;;;13.15;;
69789;SDS011;57064;52.046;4.800;2024-02-28T05:12:38;31.70;;;13.02;;
69789;SDS011;57064;52.046;4.800;2024-02-28T05:15:04;25.50;;;13.20;;
69789;SDS011;57064;52.046;4.800;2024-02-28T05:17:31;25.73;;;12.38;;
69789;SDS011;57064;52.046;4.800;2024-02-28T05:19:57;25.42;;;13.45;;
69789;SDS011;57064;52.046;4.800;2024-02-28T05:22:23;26.90;;;13.32;;
69789;SDS011;57064;52.046;4.800;2024-02-28T05:24:50;30.40;;;14.77;;
69789;SDS011;57064;52.046;4.800;2024-02-28T05:27:16;34.67;;;15.80;;
69789;SDS011;57064;52.046;4.800;2024-02-28T05:29:42;27.02;;;12.50;;
69789;SDS011;57064;52.046;4.800;2024-02-28T05:32:10;27.40;;;14.25;;
69789;SDS011;57064;52.046;4.800;2024-02-28T05:34:38;28.63;;;14.45;;
69789;SDS011;57064;52.046;4.800;2024-02-28T05:37:05;32.55;;;14.60;;
69789;SDS011;57064;52.046;4.800;2024-02-28T05:39:31;33.17;;;15.43;;
69789;SDS011;57064;52.046;4.800;2024-02-28T05:41:57;30.65;;;15.68;;
69789;SDS011;57064;52.046;4.800;2024-02-28T05:44:23;33.70;;;14.93;;
69789;SDS011;57064;52.046;4.800;2024-02-28T05:46:49;28.50;;;14.27;;
69789;SDS011;57064;52.046;4.800;2024-02-28T05:49:15;27.17;;;15.75;;
69789;SDS011;57064;52.046;4.800;2024-02-28T05:51:42;33.85;;;15.88;;
69789;SDS011;57064;52.046;4.800;2024-02-28T05:54:08;29.67;;;15.27;;
69789;SDS011;57064;52.046;4.800;2024-02-28T05:56:35;33.05;;;16.23;;
69789;SDS011;57064;52.046;4.800;2024-02-28T05:59:01;30.90;;;14.52;;
69789;SDS011;57064;52.046;4.800;2024-02-28T06:01:27;32.47;;;16.65;;
69789;SDS011;57064;52.046;4.800;2024-02-28T06:03:56;31.80;;;15.93;;
69789;SDS011;57064;52.046;4.800;2024-02-28T06:06:23;36.70;;;16.00;;
69789;SDS011;57064;52.046;4.800;2024-02-28T06:08:52;29.45;;;16.83;;
69789;SDS011;57064;52.046;4.800;2024-02-28T06:11:19;26.90;;;15.90;;
69789;SDS011;57064;52.046;4.800;2024-02-28T06:13:45;29.83;;;15.80;;
69789;SDS011;57064;52.046;4.800;2024-02-28T06:16:15;27.27;;;14.82;;
69789;SDS011;57064;52.046;4.800;2024-02-28T06:18:42;31.98;;;16.73;;
69789;SDS011;57064;52.046;4.800;2024-02-28T06:21:08;29.77;;;16.42;;
69789;SDS011;57064;52.046;4.800;2024-02-28T06:23:34;35.17;;;17.48;;
69789;SDS011;57064;52.046;4.800;2024-02-28T06:26:00;31.90;;;16.15;;
69789;SDS011;57064;52.046;4.800;2024-02-28T06:28:27;27.98;;;16.08;;
69789;SDS011;57064;52.046;4.800;2024-02-28T06:30:53;36.75;;;17.35;;
69789;SDS011;57064;52.046;4.800;2024-02-28T06:33:20;30.60;;;16.40;;
69789;SDS011;57064;52.046;4.800;2024-02-28T06:35:46;27.25;;;15.48;;
69789;SDS011;57064;52.046;4.800;2024-02-28T06:38:12;30.38;;;17.52;;
69789;SDS011;57064;52.046;4.800;2024-02-28T06:40:38;27.17;;;15.52;;
69789;SDS011;57064;52.046;4.800;2024-02-28T06:43:05;31.70;;;17.50;;
69789;SDS011;57064;52.046;4.800;2024-02-28T06:45:34;24.75;;;15.98;;
69789;SDS011;57064;52.046;4.800;2024-02-28T06:48:03;31.60;;;16.95;;
69789;SDS011;57064;52.046;4.800;2024-02-28T06:50:30;31.15;;;16.35;;
69789;SDS011;57064;52.046;4.800;2024-02-28T06:52:56;30.60;;;16.27;;
69789;SDS011;57064;52.046;4.800;2024-02-28T06:55:22;31.38;;;15.95;;
69789;SDS011;57064;52.046;4.800;2024-02-28T06:57:48;29.05;;;17.90;;
69789;SDS011;57064;52.046;4.800;2024-02-28T07:00:15;31.77;;;16.30;;
69789;SDS011;57064;52.046;4.800;2024-02-28T07:02:41;28.48;;;16.95;;
69789;SDS011;57064;52.046;4.800;2024-02-28T07:05:07;32.03;;;16.92;;
69789;SDS011;57064;52.046;4.800;2024-02-28T07:07:34;33.55;;;16.23;;
69789;SDS011;57064;52.046;4.800;2024-02-28T07:10:02;30.92;;;17.17;;
69789;SDS011;57064;52.046;4.800;2024-02-28T07:12:29;33.63;;;16.27;;
69789;SDS011;57064;52.046;4.800;2024-02-28T07:14:56;30.45;;;17.63;;
69789;SDS011;57064;52.046;4.800;2024-02-28T07:17:22;32.22;;;16.67;;
69789;SDS011;57064;52.046;4.800;2024-02-28T07:19:48;35.80;;;18.08;;
69789;SDS011;57064;52.046;4.800;2024-02-28T07:22:14;31.08;;;16.58;;
69789;SDS011;57064;52.046;4.800;2024-02-28T07:24:42;31.38;;;17.27;;
69789;SDS011;57064;52.046;4.800;2024-02-28T07:27:08;35.30;;;18.67;;
69789;SDS011;57064;52.046;4.800;2024-02-28T07:29:36;35.22;;;18.25;;
69789;SDS011;57064;52.046;4.800;2024-02-28T07:32:02;38.10;;;17.65;;
69789;SDS011;57064;52.046;4.800;2024-02-28T07:34:29;33.40;;;18.70;;
69789;SDS011;57064;52.046;4.800;2024-02-28T07:36:55;39.63;;;17.90;;
69789;SDS011;57064;52.046;4.800;2024-02-28T07:39:22;38.25;;;18.17;;
69789;SDS011;57064;52.046;4.800;2024-02-28T07:41:49;37.40;;;19.30;;
69789;SDS011;57064;52.046;4.800;2024-02-28T07:44:16;33.50;;;19.63;;
69789;SDS011;57064;52.046;4.800;2024-02-28T07:46:42;39.47;;;18.40;;
69789;SDS011;57064;52.046;4.800;2024-02-28T07:49:08;36.55;;;19.25;;
69789;SDS011;57064;52.046;4.800;2024-02-28T07:51:35;40.95;;;19.67;;
69789;SDS011;57064;52.046;4.800;2024-02-28T07:54:05;32.15;;;18.42;;
69789;SDS011;57064;52.046;4.800;2024-02-28T07:56:31;34.38;;;17.55;;
69789;SDS011;57064;52.046;4.800;2024-02-28T07:58:58;32.65;;;17.33;;
69789;SDS011;57064;52.046;4.800;2024-02-28T08:01:24;35.00;;;18.55;;
69789;SDS011;57064;52.046;4.800;2024-02-28T08:03:50;31.90;;;19.15;;
69789;SDS011;57064;52.046;4.800;2024-02-28T08:06:16;31.80;;;17.10;;
69789;SDS011;57064;52.046;4.800;2024-02-28T08:08:45;28.77;;;16.80;;
69789;SDS011;57064;52.046;4.800;2024-02-28T08:11:11;34.53;;;17.60;;
69789;SDS011;57064;52.046;4.800;2024-02-28T08:13:38;30.25;;;17.10;;
69789;SDS011;57064;52.046;4.800;2024-02-28T08:16:04;30.27;;;16.73;;
69789;SDS011;57064;52.046;4.800;2024-02-28T08:18:33;26.80;;;16.52;;
69789;SDS011;57064;52.046;4.800;2024-02-28T08:21:00;31.27;;;16.92;;
69789;SDS011;57064;52.046;4.800;2024-02-28T08:23:28;30.63;;;16.52;;
69789;SDS011;57064;52.046;4.800;2024-02-28T08:25:56;32.25;;;18.27;;
69789;SDS011;57064;52.046;4.800;2024-02-28T08:28:22;35.22;;;16.65;;
69789;SDS011;57064;52.046;4.800;2024-02-28T08:30:48;30.63;;;16.02;;
69789;SDS011;57064;52.046;4.800;2024-02-28T08:33:16;29.60;;;14.90;;
69789;SDS011;57064;52.046;4.800;2024-02-28T08:35:42;24.23;;;13.43;;
69789;SDS011;57064;52.046;4.800;2024-02-28T08:38:08;23.42;;;13.98;;
69789;SDS011;57064;52.046;4.800;2024-02-28T08:40:34;27.02;;;13.20;;
69789;SDS011;57064;52.046;4.800;2024-02-28T08:43:00;28.20;;;13.85;;
69789;SDS011;57064;52.046;4.800;2024-02-28T08:45:26;23.23;;;13.68;;
69789;SDS011;57064;52.046;4.800;2024-02-28T08:47:52;25.30;;;14.07;;
69789;SDS011;57064;52.046;4.800;2024-02-28T08:50:18;27.50;;;13.23;;
69789;SDS011;57064;52.046;4.800;2024-02-28T08:52:44;19.45;;;11.70;;
69789;SDS011;57064;52.046;4.800;2024-02-28T08:55:11;23.55;;;12.50;;
69789;SDS011;57064;52.046;4.800;2024-02-28T08:57:37;22.65;;;13.63;;
69789;SDS011;57064;52.046;4.800;2024-02-28T09:00:03;21.95;;;12.98;;
69789;SDS011;57064;52.046;4.800;2024-02-28T09:02:29;23.05;;;12.98;;
69789;SDS011;57064;52.046;4.800;2024-02-28T09:04:56;28.77;;;13.88;;
69789;SDS011;57064;52.046;4.800;2024-02-28T09:07:22;23.13;;;12.57;;
69789;SDS011;57064;52.046;4.800;2024-02-28T09:09:48;20.05;;;12.80;;
69789;SDS011;57064;52.046;4.800;2024-02-28T09:12:14;21.42;;;12.20;;
69789;SDS011;57064;52.046;4.800;2024-02-28T09:14:40;19.92;;;13.02;;
69789;SDS011;57064;52.046;4.800;2024-02-28T09:17:06;22.85;;;13.63;;
69789;SDS011;57064;52.046;4.800;2024-02-28T09:19:32;20.50;;;11.98;;
69789;SDS011;57064;52.046;4.800;2024-02-28T09:21:59;24.33;;;12.60;;
69789;SDS011;57064;52.046;4.800;2024-02-28T09:24:25;25.35;;;13.68;;
69789;SDS011;57064;52.046;4.800;2024-02-28T09:26:52;22.17;;;12.13;;
69789;SDS011;57064;52.046;4.800;2024-02-28T09:29:18;22.30;;;13.00;;
69789;SDS011;57064;52.046;4.800;2024-02-28T09:31:44;23.88;;;13.25;;
69789;SDS011;57064;52.046;4.800;2024-02-28T09:34:10;28.88;;;13.88;;
69789;SDS011;57064;52.046;4.800;2024-02-28T09:36:40;25.00;;;12.38;;
69789;SDS011;57064;52.046;4.800;2024-02-28T09:39:07;24.63;;;13.13;;
69789;SDS011;57064;52.046;4.800;2024-02-28T09:41:33;27.40;;;13.23;;
69789;SDS011;57064;52.046;4.800;2024-02-28T09:44:02;28.83;;;13.90;;
69789;SDS011;57064;52.046;4.800;2024-02-28T09:46:30;24.23;;;14.10;;
69789;SDS011;57064;52.046;4.800;2024-02-28T09:48:59;27.40;;;14.27;;
69789;SDS011;57064;52.046;4.800;2024-02-28T09:51:28;23.73;;;12.90;;
69789;SDS011;57064;52.046;4.800;2024-02-28T09:54:05;30.77;;;14.60;;
69789;SDS011;57064;52.046;4.800;2024-02-28T09:56:31;24.60;;;14.25;;
69789;SDS011;57064;52.046;4.800;2024-02-28T09:58:58;26.70;;;13.95;;
69789;SDS011;57064;52.046;4.800;2024-02-28T10:01:26;23.58;;;14.07;;
69789;SDS011;57064;52.046;4.800;2024-02-28T10:03:54;21.13;;;13.13;;
69789;SDS011;57064;52.046;4.800;2024-02-28T10:06:21;20.63;;;12.95;;
69789;SDS011;57064;52.046;4.800;2024-02-28T10:08:47;20.08;;;12.13;;
69789;SDS011;57064;52.046;4.800;2024-02-28T10:11:21;25.20;;;13.23;;
69789;SDS011;57064;52.046;4.800;2024-02-28T10:13:48;21.55;;;12.40;;
69789;SDS011;57064;52.046;4.800;2024-02-28T10:16:14;21.08;;;12.05;;
69789;SDS011;57064;52.046;4.800;2024-02-28T10:18:44;24.83;;;13.50;;
69789;SDS011;57064;52.046;4.800;2024-02-28T10:21:11;22.27;;;11.73;;
69789;SDS011;57064;52.046;4.800;2024-02-28T10:23:37;18.10;;;12.82;;
69789;SDS011;57064;52.046;4.800;2024-02-28T10:26:04;19.33;;;12.43;;
69789;SDS011;57064;52.046;4.800;2024-02-28T10:28:30;22.15;;;11.55;;
69789;SDS011;57064;52.046;4.800;2024-02-28T10:30:56;19.90;;;11.73;;
69789;SDS011;57064;52.046;4.800;2024-02-28T10:33:25;18.75;;;11.40;;
69789;SDS011;57064;52.046;4.800;2024-02-28T10:35:54;19.98;;;12.43;;
69789;SDS011;57064;52.046;4.800;2024-02-28T10:38:21;25.38;;;12.38;;
69789;SDS011;57064;52.046;4.800;2024-02-28T10:40:47;19.35;;;11.43;;
69789;SDS011;57064;52.046;4.800;2024-02-28T10:43:16;20.40;;;11.25;;
69789;SDS011;57064;52.046;4.800;2024-02-28T10:45:50;18.00;;;11.88;;
69789;SDS011;57064;52.046;4.800;2024-02-28T10:48:17;17.40;;;10.82;;
69789;SDS011;57064;52.046;4.800;2024-02-28T10:50:44;18.67;;;11.63;;
69789;SDS011;57064;52.046;4.800;2024-02-28T10:53:13;21.70;;;11.85;;
69789;SDS011;57064;52.046;4.800;2024-02-28T10:55:42;17.55;;;11.15;;
69789;SDS011;57064;52.046;4.800;2024-02-28T10:58:16;17.95;;;10.13;;
69789;SDS011;57064;52.046;4.800;2024-02-28T11:00:43;20.02;;;10.20;;
69789;SDS011;57064;52.046;4.800;2024-02-28T11:03:11;14.27;;;10.15;;
69789;SDS011;57064;52.046;4.800;2024-02-28T11:05:41;19.60;;;10.73;;
69789;SDS011;57064;52.046;4.800;2024-02-28T11:08:11;17.98;;;10.65;;
69789;SDS011;57064;52.046;4.800;2024-02-28T11:11:02;16.10;;;10.52;;
69789;SDS011;57064;52.046;4.800;2024-02-28T11:13:29;16.60;;;10.02;;
69789;SDS011;57064;52.046;4.800;2024-02-28T11:16:08;19.17;;;10.82;;
69789;SDS011;57064;52.046;4.800;2024-02-28T11:18:35;18.50;;;10.25;;
69789;SDS011;57064;52.046;4.800;2024-02-28T11:21:01;16.15;;;9.77;;
69789;SDS011;57064;52.046;4.800;2024-02-28T11:23:37;18.08;;;10.20;;
69789;SDS011;57064;52.046;4.800;2024-02-28T11:26:04;17.70;;;10.65;;
69789;SDS011;57064;52.046;4.800;2024-02-28T11:28:30;20.80;;;9.90;;
69789;SDS011;57064;52.046;4.800;2024-02-28T11:30:56;15.85;;;10.10;;
69789;SDS011;57064;52.046;4.800;2024-02-28T11:33:22;19.55;;;11.07;;
69789;SDS011;57064;52.046;4.800;2024-02-28T11:35:55;18.42;;;10.45;;
69789;SDS011;57064;52.046;4.800;2024-02-28T11:38:24;21.00;;;11.45;;
69789;SDS011;57064;52.046;4.800;2024-02-28T11:40:50;16.85;;;11.32;;
69789;SDS011;57064;52.046;4.800;2024-02-28T11:43:17;21.35;;;11.88;;
69789;SDS011;57064;52.046;4.800;2024-02-28T11:45:43;17.92;;;11.45;;
69789;SDS011;57064;52.046;4.800;2024-02-28T11:48:13;19.00;;;11.43;;
69789;SDS011;57064;52.046;4.800;2024-02-28T11:50:39;18.08;;;10.63;;
69789;SDS011;57064;52.046;4.800;2024-02-28T11:53:06;19.27;;;11.50;;
69789;SDS011;57064;52.046;4.800;2024-02-28T11:55:33;19.85;;;11.07;;
69789;SDS011;57064;52.046;4.800;2024-02-28T11:57:59;19.95;;;10.88;;
69789;SDS011;57064;52.046;4.800;2024-02-28T12:00:28;21.67;;;11.95;;
69789;SDS011;57064;52.046;4.800;2024-02-28T12:03:04;19.50;;;11.60;;
69789;SDS011;57064;52.046;4.800;2024-02-28T12:05:31;20.65;;;11.32;;
69789;SDS011;57064;52.046;4.800;2024-02-28T12:07:57;17.80;;;10.73;;
69789;SDS011;57064;52.046;4.800;2024-02-28T12:10:23;18.55;;;11.45;;
69789;SDS011;57064;52.046;4.800;2024-02-28T12:12:50;20.92;;;11.27;;
69789;SDS011;57064;52.046;4.800;2024-02-28T12:15:16;19.08;;;11.73;;
69789;SDS011;57064;52.046;4.800;2024-02-28T12:17:43;19.23;;;11.57;;
69789;SDS011;57064;52.046;4.800;2024-02-28T12:20:10;19.08;;;11.05;;
69789;SDS011;57064;52.046;4.800;2024-02-28T12:22:37;16.67;;;10.38;;
69789;SDS011;57064;52.046;4.800;2024-02-28T12:25:03;21.65;;;10.45;;
69789;SDS011;57064;52.046;4.800;2024-02-28T12:27:31;23.00;;;11.43;;
69789;SDS011;57064;52.046;4.800;2024-02-28T12:29:57;20.40;;;12.20;;
69789;SDS011;57064;52.046;4.800;2024-02-28T12:32:24;25.73;;;11.13;;
69789;SDS011;57064;52.046;4.800;2024-02-28T12:34:50;21.67;;;12.20;;
69789;SDS011;57064;52.046;4.800;2024-02-28T12:37:16;21.80;;;12.13;;
69789;SDS011;57064;52.046;4.800;2024-02-28T12:39:42;23.90;;;14.00;;
69789;SDS011;57064;52.046;4.800;2024-02-28T12:42:08;23.15;;;12.95;;
69789;SDS011;57064;52.046;4.800;2024-02-28T12:44:38;29.38;;;14.68;;
69789;SDS011;57064;52.046;4.800;2024-02-28T12:47:05;30.40;;;15.68;;
69789;SDS011;57064;52.046;4.800;2024-02-28T12:49:32;26.65;;;15.25;;
69789;SDS011;57064;52.046;4.800;2024-02-28T12:51:58;31.10;;;16.27;;
69789;SDS011;57064;52.046;4.800;2024-02-28T12:54:24;28.73;;;15.80;;
69789;SDS011;57064;52.046;4.800;2024-02-28T12:56:50;31.48;;;17.25;;
69789;SDS011;57064;52.046;4.800;2024-02-28T12:59:17;33.03;;;17.02;;
69789;SDS011;57064;52.046;4.800;2024-02-28T13:01:43;31.42;;;16.77;;
69789;SDS011;57064;52.046;4.800;2024-02-28T13:04:09;31.95;;;17.08;;
69789;SDS011;57064;52.046;4.800;2024-02-28T13:06:35;36.70;;;17.85;;
69789;SDS011;57064;52.046;4.800;2024-02-28T13:09:03;34.20;;;18.52;;
69789;SDS011;57064;52.046;4.800;2024-02-28T13:11:31;36.60;;;18.92;;
69789;SDS011;57064;52.046;4.800;2024-02-28T13:13:58;38.95;;;19.80;;
69789;SDS011;57064;52.046;4.800;2024-02-28T13:16:24;34.10;;;19.45;;
69789;SDS011;57064;52.046;4.800;2024-02-28T13:18:50;38.58;;;19.98;;
69789;SDS011;57064;52.046;4.800;2024-02-28T13:21:16;36.78;;;20.27;;
69789;SDS011;57064;52.046;4.800;2024-02-28T13:23:42;39.53;;;20.77;;
69789;SDS011;57064;52.046;4.800;2024-02-28T13:26:08;42.75;;;20.75;;
69789;SDS011;57064;52.046;4.800;2024-02-28T13:28:42;38.42;;;20.75;;
69789;SDS011;57064;52.046;4.800;2024-02-28T13:31:09;38.17;;;19.88;;
69789;SDS011;57064;52.046;4.800;2024-02-28T13:33:35;37.72;;;20.65;;
69789;SDS011;57064;52.046;4.800;2024-02-28T13:36:03;37.75;;;20.25;;
69789;SDS011;57064;52.046;4.800;2024-02-28T13:38:29;35.15;;;18.58;;
69789;SDS011;57064;52.046;4.800;2024-02-28T13:40:56;36.33;;;18.10;;
69789;SDS011;57064;52.046;4.800;2024-02-28T13:43:22;34.33;;;17.92;;
69789;SDS011;57064;52.046;4.800;2024-02-28T13:45:49;31.65;;;17.23;;
69789;SDS011;57064;52.046;4.800;2024-02-28T13:48:22;33.17;;;15.80;;
69789;SDS011;57064;52.046;4.800;2024-02-28T13:50:56;27.50;;;14.85;;
69789;SDS011;57064;52.046;4.800;2024-02-28T13:53:23;27.80;;;15.23;;
69789;SDS011;57064;52.046;4.800;2024-02-28T13:55:49;31.17;;;15.75;;
69789;SDS011;57064;52.046;4.800;2024-02-28T13:58:16;34.00;;;15.20;;
69789;SDS011;57064;52.046;4.800;2024-02-28T14:00:43;27.50;;;14.07;;
69789;SDS011;57064;52.046;4.800;2024-02-28T14:03:10;33.78;;;14.52;;
69789;SDS011;57064;52.046;4.800;2024-02-28T14:05:36;25.98;;;13.85;;
69789;SDS011;57064;52.046;4.800;2024-02-28T14:08:02;28.05;;;14.25;;
69789;SDS011;57064;52.046;4.800;2024-02-28T14:10:29;29.60;;;16.08;;
69789;SDS011;57064;52.046;4.800;2024-02-28T14:12:55;29.88;;;15.20;;
69789;SDS011;57064;52.046;4.800;2024-02-28T14:15:23;30.08;;;15.60;;
69789;SDS011;57064;52.046;4.800;2024-02-28T14:17:49;32.25;;;17.92;;
69789;SDS011;57064;52.046;4.800;2024-02-28T14:20:16;42.35;;;18.42;;
69789;SDS011;57064;52.046;4.800;2024-02-28T14:22:43;37.65;;;19.02;;